sensor_id;sensor_type;location;lat;lon;timestamp;P1;durP1;ratioP1;P2;durP2;ratioP2
13238;SDS011;6686;51.292;4.166;2022-10-22T00:01:11;10.73;;;3.00;;
13238;SDS011;6686;51.292;4.166;2022-10-22T00:03:56;8.30;;;2.63;;
13238;SDS011;6686;51.292;4.166;2022-10-22T00:06:42;6.37;;;2.30;;
13238;SDS011;6686;51.292;4.166;2022-10-22T00:09:28;5.27;;;2.50;;
13238;SDS011;6686;51.292;4.166;2022-10-22T00:12:14;6.68;;;2.50;;
13238;SDS011;6686;51.292;4.166;2022-10-22T00:15:00;4.67;;;2.57;;
13238;SDS011;6686;51.292;4.166;2022-10-22T00:17:46;6.83;;;2.70;;
13238;SDS011;6686;51.292;4.166;2022-10-22T00:20:32;7.63;;;3.10;;
13238;SDS011;6686;51.292;4.166;2022-10-22T00:23:18;7.17;;;2.80;;
13238;SDS011;6686;51.292;4.166;2022-10-22T00:26:04;7.18;;;2.70;;
13238;SDS011;6686;51.292;4.166;2022-10-22T00:28:50;5.93;;;2.30;;
13238;SDS011;6686;51.292;4.166;2022-10-22T00:31:36;6.53;;;2.63;;
13238;SDS011;6686;51.292;4.166;2022-10-22T00:34:22;7.33;;;2.53;;
13238;SDS011;6686;51.292;4.166;2022-10-22T00:37:07;7.80;;;2.70;;
13238;SDS011;6686;51.292;4.166;2022-10-22T00:39:53;7.70;;;2.78;;
13238;SDS011;6686;51.292;4.166;2022-10-22T00:42:39;6.80;;;2.10;;
13238;SDS011;6686;51.292;4.166;2022-10-22T00:45:25;9.87;;;2.70;;
13238;SDS011;6686;51.292;4.166;2022-10-22T00:48:14;11.83;;;2.67;;
13238;SDS011;6686;51.292;4.166;2022-10-22T00:51:00;8.63;;;2.10;;
13238;SDS011;6686;51.292;4.166;2022-10-22T00:53:49;7.73;;;2.53;;
13238;SDS011;6686;51.292;4.166;2022-10-22T00:56:34;8.07;;;2.80;;
13238;SDS011;6686;51.292;4.166;2022-10-22T00:59:19;5.07;;;2.20;;
13238;SDS011;6686;51.292;4.166;2022-10-22T01:02:05;5.43;;;2.60;;
13238;SDS011;6686;51.292;4.166;2022-10-22T01:04:51;7.20;;;2.77;;
13238;SDS011;6686;51.292;4.166;2022-10-22T01:07:42;7.78;;;3.30;;
13238;SDS011;6686;51.292;4.166;2022-10-22T01:10:36;7.00;;;2.50;;
13238;SDS011;6686;51.292;4.166;2022-10-22T01:22:54;8.13;;;2.70;;
13238;SDS011;6686;51.292;4.166;2022-10-22T01:25:37;7.10;;;2.75;;
13238;SDS011;6686;51.292;4.166;2022-10-22T01:31:30;7.03;;;2.60;;
13238;SDS011;6686;51.292;4.166;2022-10-22T01:34:15;5.67;;;2.50;;
13238;SDS011;6686;51.292;4.166;2022-10-22T01:37:00;7.43;;;2.57;;
13238;SDS011;6686;51.292;4.166;2022-10-22T01:39:46;6.50;;;2.80;;
13238;SDS011;6686;51.292;4.166;2022-10-22T01:42:32;9.30;;;2.40;;
13238;SDS011;6686;51.292;4.166;2022-10-22T01:45:18;5.60;;;2.63;;
13238;SDS011;6686;51.292;4.166;2022-10-22T01:48:08;7.93;;;2.60;;
13238;SDS011;6686;51.292;4.166;2022-10-22T01:57:22;8.30;;;2.80;;
13238;SDS011;6686;51.292;4.166;2022-10-22T02:00:11;10.43;;;3.00;;
13238;SDS011;6686;51.292;4.166;2022-10-22T02:05:52;7.50;;;2.43;;
13238;SDS011;6686;51.292;4.166;2022-10-22T02:08:36;5.50;;;2.40;;
13238;SDS011;6686;51.292;4.166;2022-10-22T02:11:22;7.00;;;2.60;;
13238;SDS011;6686;51.292;4.166;2022-10-22T02:14:08;6.97;;;2.90;;
13238;SDS011;6686;51.292;4.166;2022-10-22T02:16:54;5.37;;;2.60;;
13238;SDS011;6686;51.292;4.166;2022-10-22T02:19:45;5.23;;;2.60;;
13238;SDS011;6686;51.292;4.166;2022-10-22T02:22:29;6.77;;;2.53;;
13238;SDS011;6686;51.292;4.166;2022-10-22T02:25:15;8.27;;;2.53;;
13238;SDS011;6686;51.292;4.166;2022-10-22T02:31:16;7.73;;;3.13;;
13238;SDS011;6686;51.292;4.166;2022-10-22T02:34:02;6.57;;;2.47;;
13238;SDS011;6686;51.292;4.166;2022-10-22T02:36:46;8.97;;;2.73;;
13238;SDS011;6686;51.292;4.166;2022-10-22T02:39:32;7.70;;;3.03;;
13238;SDS011;6686;51.292;4.166;2022-10-22T02:42:18;12.93;;;3.30;;
13238;SDS011;6686;51.292;4.166;2022-10-22T02:45:04;6.60;;;2.60;;
13238;SDS011;6686;51.292;4.166;2022-10-22T02:47:50;7.50;;;2.90;;
13238;SDS011;6686;51.292;4.166;2022-10-22T02:50:36;9.47;;;3.00;;
13238;SDS011;6686;51.292;4.166;2022-10-22T02:53:22;6.27;;;2.73;;
13238;SDS011;6686;51.292;4.166;2022-10-22T02:56:08;8.70;;;2.50;;
13238;SDS011;6686;51.292;4.166;2022-10-22T02:58:54;8.20;;;2.70;;
13238;SDS011;6686;51.292;4.166;2022-10-22T03:01:40;8.97;;;2.83;;
13238;SDS011;6686;51.292;4.166;2022-10-22T03:04:27;11.17;;;2.73;;
13238;SDS011;6686;51.292;4.166;2022-10-22T03:07:13;9.20;;;3.20;;
13238;SDS011;6686;51.292;4.166;2022-10-22T03:09:58;9.07;;;3.10;;
13238;SDS011;6686;51.292;4.166;2022-10-22T03:12:44;9.43;;;3.43;;
13238;SDS011;6686;51.292;4.166;2022-10-22T03:15:30;9.10;;;3.10;;
13238;SDS011;6686;51.292;4.166;2022-10-22T03:18:16;9.10;;;2.83;;
13238;SDS011;6686;51.292;4.166;2022-10-22T03:21:08;8.80;;;2.60;;
13238;SDS011;6686;51.292;4.166;2022-10-22T03:23:54;8.70;;;3.80;;
13238;SDS011;6686;51.292;4.166;2022-10-22T03:26:40;9.00;;;3.00;;
13238;SDS011;6686;51.292;4.166;2022-10-22T03:29:26;5.33;;;2.57;;
13238;SDS011;6686;51.292;4.166;2022-10-22T03:32:12;13.73;;;3.40;;
13238;SDS011;6686;51.292;4.166;2022-10-22T03:34:58;8.93;;;3.30;;
13238;SDS011;6686;51.292;4.166;2022-10-22T03:37:44;6.23;;;2.87;;
13238;SDS011;6686;51.292;4.166;2022-10-22T03:40:30;4.90;;;2.77;;
13238;SDS011;6686;51.292;4.166;2022-10-22T03:43:16;10.13;;;3.17;;
13238;SDS011;6686;51.292;4.166;2022-10-22T03:46:02;9.47;;;3.10;;
13238;SDS011;6686;51.292;4.166;2022-10-22T03:48:47;9.70;;;3.00;;
13238;SDS011;6686;51.292;4.166;2022-10-22T03:51:33;6.77;;;2.80;;
13238;SDS011;6686;51.292;4.166;2022-10-22T03:54:19;7.37;;;2.60;;
13238;SDS011;6686;51.292;4.166;2022-10-22T03:57:08;8.10;;;3.03;;
13238;SDS011;6686;51.292;4.166;2022-10-22T03:59:52;6.33;;;2.73;;
13238;SDS011;6686;51.292;4.166;2022-10-22T04:02:37;13.50;;;3.80;;
13238;SDS011;6686;51.292;4.166;2022-10-22T04:05:23;14.77;;;2.90;;
13238;SDS011;6686;51.292;4.166;2022-10-22T04:08:09;8.37;;;3.53;;
13238;SDS011;6686;51.292;4.166;2022-10-22T04:10:55;7.83;;;2.70;;
13238;SDS011;6686;51.292;4.166;2022-10-22T04:13:41;11.47;;;3.60;;
13238;SDS011;6686;51.292;4.166;2022-10-22T04:16:27;9.57;;;2.97;;
13238;SDS011;6686;51.292;4.166;2022-10-22T04:19:13;7.55;;;3.20;;
13238;SDS011;6686;51.292;4.166;2022-10-22T04:21:59;6.40;;;2.63;;
13238;SDS011;6686;51.292;4.166;2022-10-22T04:24:45;8.43;;;2.90;;
13238;SDS011;6686;51.292;4.166;2022-10-22T04:27:31;7.47;;;3.20;;
13238;SDS011;6686;51.292;4.166;2022-10-22T04:30:17;7.12;;;2.90;;
13238;SDS011;6686;51.292;4.166;2022-10-22T04:33:03;8.50;;;2.90;;
13238;SDS011;6686;51.292;4.166;2022-10-22T04:35:48;10.07;;;2.83;;
13238;SDS011;6686;51.292;4.166;2022-10-22T04:38:35;5.60;;;2.73;;
13238;SDS011;6686;51.292;4.166;2022-10-22T04:41:22;9.07;;;2.78;;
13238;SDS011;6686;51.292;4.166;2022-10-22T04:44:07;11.23;;;2.60;;
13238;SDS011;6686;51.292;4.166;2022-10-22T04:46:54;9.00;;;2.90;;
13238;SDS011;6686;51.292;4.166;2022-10-22T04:49:39;9.40;;;3.20;;
13238;SDS011;6686;51.292;4.166;2022-10-22T04:52:25;8.27;;;2.80;;
13238;SDS011;6686;51.292;4.166;2022-10-22T04:55:11;7.80;;;2.80;;
13238;SDS011;6686;51.292;4.166;2022-10-22T04:57:57;7.03;;;2.40;;
13238;SDS011;6686;51.292;4.166;2022-10-22T05:00:43;5.63;;;2.57;;
13238;SDS011;6686;51.292;4.166;2022-10-22T05:03:29;8.00;;;2.43;;
13238;SDS011;6686;51.292;4.166;2022-10-22T05:06:15;8.37;;;2.70;;
13238;SDS011;6686;51.292;4.166;2022-10-22T05:09:04;8.73;;;3.10;;
13238;SDS011;6686;51.292;4.166;2022-10-22T05:11:48;6.17;;;2.87;;
13238;SDS011;6686;51.292;4.166;2022-10-22T05:14:33;7.53;;;2.90;;
13238;SDS011;6686;51.292;4.166;2022-10-22T05:17:19;8.27;;;2.40;;
13238;SDS011;6686;51.292;4.166;2022-10-22T05:20:05;9.87;;;2.30;;
13238;SDS011;6686;51.292;4.166;2022-10-22T05:22:51;10.20;;;2.67;;
13238;SDS011;6686;51.292;4.166;2022-10-22T05:25:37;5.60;;;2.43;;
13238;SDS011;6686;51.292;4.166;2022-10-22T05:28:23;7.73;;;2.63;;
13238;SDS011;6686;51.292;4.166;2022-10-22T05:31:12;5.83;;;2.60;;
13238;SDS011;6686;51.292;4.166;2022-10-22T05:33:58;6.60;;;2.60;;
13238;SDS011;6686;51.292;4.166;2022-10-22T05:36:44;9.13;;;2.80;;
13238;SDS011;6686;51.292;4.166;2022-10-22T05:39:30;7.43;;;2.50;;
13238;SDS011;6686;51.292;4.166;2022-10-22T05:42:16;8.82;;;3.37;;
13238;SDS011;6686;51.292;4.166;2022-10-22T05:45:02;8.07;;;2.53;;
13238;SDS011;6686;51.292;4.166;2022-10-22T05:47:48;4.80;;;2.07;;
13238;SDS011;6686;51.292;4.166;2022-10-22T05:50:35;7.60;;;2.73;;
13238;SDS011;6686;51.292;4.166;2022-10-22T05:53:20;6.70;;;2.17;;
13238;SDS011;6686;51.292;4.166;2022-10-22T05:56:07;7.07;;;2.50;;
13238;SDS011;6686;51.292;4.166;2022-10-22T05:58:55;10.23;;;3.17;;
13238;SDS011;6686;51.292;4.166;2022-10-22T06:01:40;10.20;;;2.83;;
13238;SDS011;6686;51.292;4.166;2022-10-22T06:04:27;6.47;;;2.53;;
13238;SDS011;6686;51.292;4.166;2022-10-22T06:07:13;7.67;;;2.27;;
13238;SDS011;6686;51.292;4.166;2022-10-22T06:09:59;6.57;;;2.23;;
13238;SDS011;6686;51.292;4.166;2022-10-22T06:12:48;8.93;;;2.57;;
13238;SDS011;6686;51.292;4.166;2022-10-22T06:15:30;4.90;;;2.23;;
13238;SDS011;6686;51.292;4.166;2022-10-22T06:18:16;9.07;;;2.30;;
13238;SDS011;6686;51.292;4.166;2022-10-22T06:21:06;8.73;;;2.70;;
13238;SDS011;6686;51.292;4.166;2022-10-22T06:23:49;9.83;;;2.40;;
13238;SDS011;6686;51.292;4.166;2022-10-22T06:26:34;8.47;;;2.20;;
13238;SDS011;6686;51.292;4.166;2022-10-22T06:29:20;6.03;;;2.50;;
13238;SDS011;6686;51.292;4.166;2022-10-22T06:32:06;9.13;;;2.80;;
13238;SDS011;6686;51.292;4.166;2022-10-22T06:34:52;8.63;;;2.50;;
13238;SDS011;6686;51.292;4.166;2022-10-22T06:37:38;9.00;;;2.40;;
13238;SDS011;6686;51.292;4.166;2022-10-22T06:40:24;10.93;;;2.70;;
13238;SDS011;6686;51.292;4.166;2022-10-22T06:43:13;11.63;;;2.90;;
13238;SDS011;6686;51.292;4.166;2022-10-22T06:46:02;9.53;;;2.40;;
13238;SDS011;6686;51.292;4.166;2022-10-22T06:48:51;8.80;;;2.70;;
13238;SDS011;6686;51.292;4.166;2022-10-22T06:51:36;13.27;;;2.83;;
13238;SDS011;6686;51.292;4.166;2022-10-22T06:54:22;5.20;;;2.27;;
13238;SDS011;6686;51.292;4.166;2022-10-22T06:57:08;12.03;;;2.57;;
13238;SDS011;6686;51.292;4.166;2022-10-22T06:59:54;6.27;;;2.57;;
13238;SDS011;6686;51.292;4.166;2022-10-22T07:02:41;11.00;;;2.43;;
13238;SDS011;6686;51.292;4.166;2022-10-22T07:05:27;8.23;;;2.80;;
13238;SDS011;6686;51.292;4.166;2022-10-22T07:08:12;9.40;;;2.97;;
13238;SDS011;6686;51.292;4.166;2022-10-22T07:11:17;6.33;;;1.90;;
13238;SDS011;6686;51.292;4.166;2022-10-22T07:14:02;9.00;;;2.60;;
13238;SDS011;6686;51.292;4.166;2022-10-22T07:16:48;7.17;;;2.13;;
13238;SDS011;6686;51.292;4.166;2022-10-22T07:19:36;8.87;;;3.00;;
13238;SDS011;6686;51.292;4.166;2022-10-22T07:22:22;8.30;;;2.60;;
13238;SDS011;6686;51.292;4.166;2022-10-22T07:25:08;8.90;;;2.70;;
13238;SDS011;6686;51.292;4.166;2022-10-22T07:27:54;9.60;;;2.63;;
13238;SDS011;6686;51.292;4.166;2022-10-22T07:30:40;6.83;;;2.40;;
13238;SDS011;6686;51.292;4.166;2022-10-22T07:33:26;9.90;;;2.50;;
13238;SDS011;6686;51.292;4.166;2022-10-22T07:36:13;8.77;;;2.70;;
13238;SDS011;6686;51.292;4.166;2022-10-22T07:38:59;9.27;;;2.40;;
13238;SDS011;6686;51.292;4.166;2022-10-22T07:41:45;9.43;;;2.43;;
13238;SDS011;6686;51.292;4.166;2022-10-22T07:44:31;9.13;;;2.30;;
13238;SDS011;6686;51.292;4.166;2022-10-22T07:47:17;4.83;;;2.03;;
13238;SDS011;6686;51.292;4.166;2022-10-22T07:50:03;7.70;;;2.37;;
13238;SDS011;6686;51.292;4.166;2022-10-22T07:52:49;9.37;;;2.33;;
13238;SDS011;6686;51.292;4.166;2022-10-22T07:55:34;7.80;;;2.43;;
13238;SDS011;6686;51.292;4.166;2022-10-22T07:58:21;10.73;;;2.60;;
13238;SDS011;6686;51.292;4.166;2022-10-22T08:01:06;5.73;;;2.37;;
13238;SDS011;6686;51.292;4.166;2022-10-22T08:03:52;5.50;;;2.63;;
13238;SDS011;6686;51.292;4.166;2022-10-22T08:06:38;6.07;;;2.15;;
13238;SDS011;6686;51.292;4.166;2022-10-22T08:09:24;6.13;;;1.97;;
13238;SDS011;6686;51.292;4.166;2022-10-22T08:12:09;7.17;;;2.30;;
13238;SDS011;6686;51.292;4.166;2022-10-22T08:14:55;10.03;;;2.20;;
13238;SDS011;6686;51.292;4.166;2022-10-22T08:17:42;8.52;;;2.35;;
13238;SDS011;6686;51.292;4.166;2022-10-22T08:20:28;6.37;;;2.10;;
13238;SDS011;6686;51.292;4.166;2022-10-22T08:23:14;8.27;;;2.43;;
13238;SDS011;6686;51.292;4.166;2022-10-22T08:25:59;8.13;;;2.13;;
13238;SDS011;6686;51.292;4.166;2022-10-22T08:28:45;7.93;;;2.47;;
13238;SDS011;6686;51.292;4.166;2022-10-22T08:31:31;6.30;;;2.70;;
13238;SDS011;6686;51.292;4.166;2022-10-22T08:34:17;12.60;;;2.63;;
13238;SDS011;6686;51.292;4.166;2022-10-22T08:37:03;6.17;;;2.10;;
13238;SDS011;6686;51.292;4.166;2022-10-22T08:39:48;7.40;;;2.40;;
13238;SDS011;6686;51.292;4.166;2022-10-22T08:45:39;9.00;;;2.23;;
13238;SDS011;6686;51.292;4.166;2022-10-22T08:48:31;8.43;;;2.37;;
13238;SDS011;6686;51.292;4.166;2022-10-22T08:51:26;8.03;;;2.70;;
13238;SDS011;6686;51.292;4.166;2022-10-22T09:03:26;6.60;;;2.47;;
13238;SDS011;6686;51.292;4.166;2022-10-22T09:06:11;9.37;;;2.37;;
13238;SDS011;6686;51.292;4.166;2022-10-22T09:08:59;8.07;;;2.20;;
13238;SDS011;6686;51.292;4.166;2022-10-22T09:11:46;12.27;;;2.53;;
13238;SDS011;6686;51.292;4.166;2022-10-22T09:14:30;7.70;;;3.03;;
13238;SDS011;6686;51.292;4.166;2022-10-22T09:17:31;10.17;;;2.47;;
13238;SDS011;6686;51.292;4.166;2022-10-22T09:20:31;9.80;;;2.83;;
13238;SDS011;6686;51.292;4.166;2022-10-22T09:26:14;6.67;;;2.63;;
13238;SDS011;6686;51.292;4.166;2022-10-22T09:28:59;10.10;;;2.50;;
13238;SDS011;6686;51.292;4.166;2022-10-22T09:31:45;8.07;;;2.20;;
13238;SDS011;6686;51.292;4.166;2022-10-22T09:34:31;11.95;;;2.97;;
13238;SDS011;6686;51.292;4.166;2022-10-22T09:37:17;7.67;;;2.43;;
13238;SDS011;6686;51.292;4.166;2022-10-22T09:40:03;8.43;;;2.73;;
13238;SDS011;6686;51.292;4.166;2022-10-22T09:42:52;4.90;;;2.00;;
13238;SDS011;6686;51.292;4.166;2022-10-22T09:45:38;7.83;;;2.57;;
13238;SDS011;6686;51.292;4.166;2022-10-22T09:48:28;9.13;;;2.53;;
13238;SDS011;6686;51.292;4.166;2022-10-22T09:54:36;5.43;;;2.80;;
13238;SDS011;6686;51.292;4.166;2022-10-22T09:59:59;10.10;;;2.90;;
13238;SDS011;6686;51.292;4.166;2022-10-22T10:02:45;8.90;;;2.70;;
13238;SDS011;6686;51.292;4.166;2022-10-22T10:05:32;6.63;;;2.33;;
13238;SDS011;6686;51.292;4.166;2022-10-22T10:08:16;7.53;;;2.43;;
13238;SDS011;6686;51.292;4.166;2022-10-22T10:14:06;7.23;;;2.37;;
13238;SDS011;6686;51.292;4.166;2022-10-22T10:17:26;9.30;;;2.40;;
13238;SDS011;6686;51.292;4.166;2022-10-22T10:26:15;9.23;;;2.73;;
13238;SDS011;6686;51.292;4.166;2022-10-22T10:29:06;12.57;;;2.93;;
13238;SDS011;6686;51.292;4.166;2022-10-22T10:32:21;10.27;;;2.43;;
13238;SDS011;6686;51.292;4.166;2022-10-22T10:35:14;8.07;;;2.63;;
13238;SDS011;6686;51.292;4.166;2022-10-22T10:47:10;10.95;;;3.05;;
13238;SDS011;6686;51.292;4.166;2022-10-22T10:49:53;9.57;;;2.60;;
13238;SDS011;6686;51.292;4.166;2022-10-22T10:52:49;4.73;;;2.70;;
13238;SDS011;6686;51.292;4.166;2022-10-22T10:55:31;9.57;;;2.93;;
13238;SDS011;6686;51.292;4.166;2022-10-22T11:01:28;8.75;;;2.45;;
13238;SDS011;6686;51.292;4.166;2022-10-22T11:04:18;6.40;;;2.08;;
13238;SDS011;6686;51.292;4.166;2022-10-22T11:06:59;7.83;;;2.87;;
13238;SDS011;6686;51.292;4.166;2022-10-22T11:09:49;8.63;;;2.97;;
13238;SDS011;6686;51.292;4.166;2022-10-22T11:12:33;9.35;;;2.70;;
13238;SDS011;6686;51.292;4.166;2022-10-22T11:15:25;9.23;;;2.90;;
13238;SDS011;6686;51.292;4.166;2022-10-22T11:21:26;9.47;;;2.50;;
13238;SDS011;6686;51.292;4.166;2022-10-22T11:30:22;6.53;;;2.43;;
13238;SDS011;6686;51.292;4.166;2022-10-22T11:33:11;8.47;;;2.73;;
13238;SDS011;6686;51.292;4.166;2022-10-22T11:35:56;10.40;;;3.00;;
13238;SDS011;6686;51.292;4.166;2022-10-22T11:38:42;8.23;;;2.73;;
13238;SDS011;6686;51.292;4.166;2022-10-22T11:41:28;6.83;;;2.40;;
13238;SDS011;6686;51.292;4.166;2022-10-22T11:44:21;9.00;;;2.23;;
13238;SDS011;6686;51.292;4.166;2022-10-22T11:47:08;7.80;;;2.37;;
13238;SDS011;6686;51.292;4.166;2022-10-22T11:50:15;8.60;;;2.50;;
13238;SDS011;6686;51.292;4.166;2022-10-22T11:53:04;11.27;;;2.63;;
13238;SDS011;6686;51.292;4.166;2022-10-22T11:55:49;8.60;;;2.37;;
13238;SDS011;6686;51.292;4.166;2022-10-22T12:01:24;5.13;;;2.20;;
13238;SDS011;6686;51.292;4.166;2022-10-22T12:04:21;4.23;;;2.80;;
13238;SDS011;6686;51.292;4.166;2022-10-22T12:07:24;8.50;;;2.23;;
13238;SDS011;6686;51.292;4.166;2022-10-22T12:09:52;8.63;;;2.73;;
13238;SDS011;6686;51.292;4.166;2022-10-22T12:12:38;11.63;;;3.07;;
13238;SDS011;6686;51.292;4.166;2022-10-22T12:15:25;6.20;;;2.30;;
13238;SDS011;6686;51.292;4.166;2022-10-22T12:18:10;5.73;;;2.40;;
13238;SDS011;6686;51.292;4.166;2022-10-22T12:20:56;6.90;;;2.00;;
13238;SDS011;6686;51.292;4.166;2022-10-22T12:23:42;7.03;;;2.23;;
13238;SDS011;6686;51.292;4.166;2022-10-22T12:26:29;5.30;;;2.10;;
13238;SDS011;6686;51.292;4.166;2022-10-22T12:29:15;10.93;;;2.60;;
13238;SDS011;6686;51.292;4.166;2022-10-22T12:32:03;7.67;;;2.10;;
13238;SDS011;6686;51.292;4.166;2022-10-22T12:34:50;5.73;;;2.27;;
13238;SDS011;6686;51.292;4.166;2022-10-22T12:37:35;6.80;;;2.00;;
13238;SDS011;6686;51.292;4.166;2022-10-22T12:40:24;8.67;;;2.03;;
13238;SDS011;6686;51.292;4.166;2022-10-22T12:43:10;8.80;;;2.17;;
13238;SDS011;6686;51.292;4.166;2022-10-22T12:45:55;6.90;;;2.30;;
13238;SDS011;6686;51.292;4.166;2022-10-22T12:48:42;6.33;;;2.33;;
13238;SDS011;6686;51.292;4.166;2022-10-22T12:51:28;7.20;;;2.30;;
13238;SDS011;6686;51.292;4.166;2022-10-22T12:54:26;7.33;;;2.17;;
13238;SDS011;6686;51.292;4.166;2022-10-22T12:57:12;5.60;;;2.10;;
13238;SDS011;6686;51.292;4.166;2022-10-22T12:59:58;9.43;;;2.50;;
13238;SDS011;6686;51.292;4.166;2022-10-22T13:02:43;6.63;;;2.00;;
13238;SDS011;6686;51.292;4.166;2022-10-22T13:05:33;8.33;;;2.80;;
13238;SDS011;6686;51.292;4.166;2022-10-22T13:08:20;8.20;;;2.17;;
13238;SDS011;6686;51.292;4.166;2022-10-22T13:11:08;6.90;;;2.13;;
13238;SDS011;6686;51.292;4.166;2022-10-22T13:13:59;7.10;;;1.93;;
13238;SDS011;6686;51.292;4.166;2022-10-22T13:16:38;8.10;;;2.20;;
13238;SDS011;6686;51.292;4.166;2022-10-22T13:19:41;8.33;;;2.10;;
13238;SDS011;6686;51.292;4.166;2022-10-22T13:22:32;6.47;;;1.90;;
13238;SDS011;6686;51.292;4.166;2022-10-22T13:25:22;5.37;;;2.17;;
13238;SDS011;6686;51.292;4.166;2022-10-22T13:28:19;4.80;;;1.70;;
13238;SDS011;6686;51.292;4.166;2022-10-22T13:31:14;5.83;;;2.13;;
13238;SDS011;6686;51.292;4.166;2022-10-22T13:33:57;3.90;;;2.03;;
13238;SDS011;6686;51.292;4.166;2022-10-22T13:36:39;5.30;;;2.20;;
13238;SDS011;6686;51.292;4.166;2022-10-22T13:39:25;6.57;;;1.90;;
13238;SDS011;6686;51.292;4.166;2022-10-22T13:42:12;7.80;;;2.23;;
13238;SDS011;6686;51.292;4.166;2022-10-22T13:44:57;7.53;;;2.10;;
13238;SDS011;6686;51.292;4.166;2022-10-22T13:48:02;8.50;;;2.10;;
13238;SDS011;6686;51.292;4.166;2022-10-22T13:50:38;7.90;;;2.03;;
13238;SDS011;6686;51.292;4.166;2022-10-22T13:53:30;5.60;;;2.17;;
13238;SDS011;6686;51.292;4.166;2022-10-22T13:56:17;9.87;;;3.07;;
13238;SDS011;6686;51.292;4.166;2022-10-22T13:59:02;5.60;;;2.00;;
13238;SDS011;6686;51.292;4.166;2022-10-22T14:01:48;6.93;;;2.57;;
13238;SDS011;6686;51.292;4.166;2022-10-22T14:04:34;6.30;;;2.10;;
13238;SDS011;6686;51.292;4.166;2022-10-22T14:07:20;8.93;;;3.27;;
13238;SDS011;6686;51.292;4.166;2022-10-22T14:10:19;5.70;;;2.03;;
13238;SDS011;6686;51.292;4.166;2022-10-22T14:13:14;6.47;;;2.00;;
13238;SDS011;6686;51.292;4.166;2022-10-22T14:15:59;4.33;;;1.93;;
13238;SDS011;6686;51.292;4.166;2022-10-22T14:18:45;5.17;;;1.70;;
13238;SDS011;6686;51.292;4.166;2022-10-22T14:21:35;5.37;;;1.70;;
13238;SDS011;6686;51.292;4.166;2022-10-22T14:24:20;4.37;;;1.80;;
13238;SDS011;6686;51.292;4.166;2022-10-22T14:27:07;4.57;;;1.80;;
13238;SDS011;6686;51.292;4.166;2022-10-22T14:29:51;4.97;;;1.60;;
13238;SDS011;6686;51.292;4.166;2022-10-22T14:32:37;4.17;;;2.13;;
13238;SDS011;6686;51.292;4.166;2022-10-22T14:35:23;6.90;;;2.30;;
13238;SDS011;6686;51.292;4.166;2022-10-22T14:38:09;8.50;;;1.90;;
13238;SDS011;6686;51.292;4.166;2022-10-22T14:40:55;3.73;;;1.70;;
13238;SDS011;6686;51.292;4.166;2022-10-22T14:43:41;5.80;;;1.60;;
13238;SDS011;6686;51.292;4.166;2022-10-22T14:46:27;6.87;;;2.33;;
13238;SDS011;6686;51.292;4.166;2022-10-22T14:49:13;6.57;;;2.13;;
13238;SDS011;6686;51.292;4.166;2022-10-22T14:51:59;5.83;;;2.00;;
13238;SDS011;6686;51.292;4.166;2022-10-22T14:54:45;6.53;;;1.80;;
13238;SDS011;6686;51.292;4.166;2022-10-22T14:57:31;6.83;;;2.07;;
13238;SDS011;6686;51.292;4.166;2022-10-22T15:00:18;8.90;;;2.10;;
13238;SDS011;6686;51.292;4.166;2022-10-22T15:03:03;6.60;;;2.10;;
13238;SDS011;6686;51.292;4.166;2022-10-22T15:05:50;4.93;;;2.10;;
13238;SDS011;6686;51.292;4.166;2022-10-22T15:08:35;5.00;;;2.23;;
13238;SDS011;6686;51.292;4.166;2022-10-22T15:11:21;4.93;;;2.17;;
13238;SDS011;6686;51.292;4.166;2022-10-22T15:14:07;3.43;;;1.80;;
13238;SDS011;6686;51.292;4.166;2022-10-22T15:16:53;5.43;;;2.10;;
13238;SDS011;6686;51.292;4.166;2022-10-22T15:19:40;5.33;;;1.93;;
13238;SDS011;6686;51.292;4.166;2022-10-22T15:22:26;4.07;;;1.70;;
13238;SDS011;6686;51.292;4.166;2022-10-22T15:25:12;4.37;;;1.73;;
13238;SDS011;6686;51.292;4.166;2022-10-22T15:27:58;3.70;;;1.60;;
13238;SDS011;6686;51.292;4.166;2022-10-22T15:30:44;4.78;;;1.90;;
13238;SDS011;6686;51.292;4.166;2022-10-22T15:33:30;4.97;;;2.23;;
13238;SDS011;6686;51.292;4.166;2022-10-22T15:36:16;4.17;;;1.90;;
13238;SDS011;6686;51.292;4.166;2022-10-22T15:39:06;7.20;;;2.20;;
13238;SDS011;6686;51.292;4.166;2022-10-22T15:41:51;4.43;;;2.10;;
13238;SDS011;6686;51.292;4.166;2022-10-22T15:44:36;9.23;;;2.23;;
13238;SDS011;6686;51.292;4.166;2022-10-22T15:47:23;5.33;;;2.00;;
13238;SDS011;6686;51.292;4.166;2022-10-22T15:50:11;3.40;;;1.80;;
13238;SDS011;6686;51.292;4.166;2022-10-22T15:52:58;5.60;;;2.40;;
13238;SDS011;6686;51.292;4.166;2022-10-22T15:55:47;4.43;;;2.10;;
13238;SDS011;6686;51.292;4.166;2022-10-22T15:58:29;8.70;;;2.43;;
13238;SDS011;6686;51.292;4.166;2022-10-22T16:01:15;6.67;;;2.10;;
13238;SDS011;6686;51.292;4.166;2022-10-22T16:04:01;4.33;;;1.60;;
13238;SDS011;6686;51.292;4.166;2022-10-22T16:06:49;4.60;;;2.10;;
13238;SDS011;6686;51.292;4.166;2022-10-22T16:09:33;4.13;;;1.90;;
13238;SDS011;6686;51.292;4.166;2022-10-22T16:12:19;5.53;;;2.20;;
13238;SDS011;6686;51.292;4.166;2022-10-22T16:15:06;5.70;;;2.27;;
13238;SDS011;6686;51.292;4.166;2022-10-22T16:17:51;7.70;;;2.37;;
13238;SDS011;6686;51.292;4.166;2022-10-22T16:20:38;6.87;;;2.20;;
13238;SDS011;6686;51.292;4.166;2022-10-22T16:23:23;6.30;;;2.63;;
13238;SDS011;6686;51.292;4.166;2022-10-22T16:26:09;8.50;;;2.70;;
13238;SDS011;6686;51.292;4.166;2022-10-22T16:28:55;6.73;;;3.00;;
13238;SDS011;6686;51.292;4.166;2022-10-22T16:31:41;9.47;;;3.83;;
13238;SDS011;6686;51.292;4.166;2022-10-22T16:34:27;8.20;;;3.70;;
13238;SDS011;6686;51.292;4.166;2022-10-22T16:37:13;5.57;;;3.00;;
13238;SDS011;6686;51.292;4.166;2022-10-22T16:39:58;5.80;;;2.97;;
13238;SDS011;6686;51.292;4.166;2022-10-22T16:42:44;8.73;;;3.27;;
13238;SDS011;6686;51.292;4.166;2022-10-22T16:45:30;6.37;;;4.10;;
13238;SDS011;6686;51.292;4.166;2022-10-22T16:48:16;7.17;;;2.77;;
13238;SDS011;6686;51.292;4.166;2022-10-22T16:51:06;4.60;;;2.63;;
13238;SDS011;6686;51.292;4.166;2022-10-22T16:53:51;6.00;;;2.50;;
13238;SDS011;6686;51.292;4.166;2022-10-22T16:56:37;4.13;;;2.20;;
13238;SDS011;6686;51.292;4.166;2022-10-22T16:59:26;4.63;;;2.50;;
13238;SDS011;6686;51.292;4.166;2022-10-22T17:02:12;6.53;;;2.70;;
13238;SDS011;6686;51.292;4.166;2022-10-22T17:04:58;6.40;;;4.63;;
13238;SDS011;6686;51.292;4.166;2022-10-22T17:07:43;5.93;;;3.80;;
13238;SDS011;6686;51.292;4.166;2022-10-22T17:10:29;9.87;;;5.57;;
13238;SDS011;6686;51.292;4.166;2022-10-22T17:13:15;7.30;;;3.60;;
13238;SDS011;6686;51.292;4.166;2022-10-22T17:16:05;9.30;;;4.10;;
13238;SDS011;6686;51.292;4.166;2022-10-22T17:18:51;5.93;;;3.67;;
13238;SDS011;6686;51.292;4.166;2022-10-22T17:21:36;11.27;;;5.63;;
13238;SDS011;6686;51.292;4.166;2022-10-22T17:24:22;9.07;;;4.07;;
13238;SDS011;6686;51.292;4.166;2022-10-22T17:27:08;5.13;;;3.67;;
13238;SDS011;6686;51.292;4.166;2022-10-22T17:29:54;8.53;;;4.13;;
13238;SDS011;6686;51.292;4.166;2022-10-22T17:32:40;7.47;;;3.53;;
13238;SDS011;6686;51.292;4.166;2022-10-22T17:35:26;4.67;;;3.63;;
13238;SDS011;6686;51.292;4.166;2022-10-22T17:38:12;6.75;;;4.00;;
13238;SDS011;6686;51.292;4.166;2022-10-22T17:40:58;5.67;;;3.30;;
13238;SDS011;6686;51.292;4.166;2022-10-22T17:43:44;9.70;;;4.40;;
13238;SDS011;6686;51.292;4.166;2022-10-22T17:46:30;8.67;;;3.87;;
13238;SDS011;6686;51.292;4.166;2022-10-22T17:49:16;11.80;;;4.87;;
13238;SDS011;6686;51.292;4.166;2022-10-22T17:52:01;7.40;;;4.13;;
13238;SDS011;6686;51.292;4.166;2022-10-22T17:54:48;7.50;;;4.47;;
13238;SDS011;6686;51.292;4.166;2022-10-22T17:57:33;6.43;;;3.73;;
13238;SDS011;6686;51.292;4.166;2022-10-22T18:00:19;7.97;;;4.17;;
13238;SDS011;6686;51.292;4.166;2022-10-22T18:03:06;6.87;;;3.77;;
13238;SDS011;6686;51.292;4.166;2022-10-22T18:05:51;6.32;;;3.78;;
13238;SDS011;6686;51.292;4.166;2022-10-22T18:08:37;6.97;;;3.60;;
13238;SDS011;6686;51.292;4.166;2022-10-22T18:11:24;7.20;;;3.85;;
13238;SDS011;6686;51.292;4.166;2022-10-22T18:14:10;8.87;;;5.50;;
13238;SDS011;6686;51.292;4.166;2022-10-22T18:16:56;8.15;;;4.30;;
13238;SDS011;6686;51.292;4.166;2022-10-22T18:19:42;8.93;;;4.57;;